Time;durP1;ratioP1;P1;durP2;ratioP2;P2;SDS_P1;SDS_P2;PMS_P1;PMS_P2;Temp;Humidity;BMP_temperature;BMP_pressure;BME280_temperature;BME280_humidity;BME280_pressure;Samples;Min_cycle;Max_cycle;Signal;HPM_P1;HPM_P2
2021/09/22 00:01:19;;;;;;;1.90;1.80;;;15.30;99.90;;;;;;6084111;23;20698;-77
2021/09/22 00:03:46;;;;;;;1.70;1.60;;;15.20;99.90;;;;;;6086656;23;20201;-77
2021/09/22 00:06:14;;;;;;;1.83;1.73;;;15.20;99.90;;;;;;6085262;23;20212;-78
2021/09/22 00:08:41;;;;;;;1.85;1.33;;;15.20;99.90;;;;;;6086128;23;20210;-77
2021/09/22 00:11:09;;;;;;;1.60;1.50;;;15.20;99.90;;;;;;6085350;23;20221;-77
2021/09/22 00:13:36;;;;;;;1.67;1.58;;;15.20;99.90;;;;;;6084719;23;20682;-77
2021/09/22 00:16:03;;;;;;;2.03;1.70;;;15.10;99.90;;;;;;6085554;23;20209;-77
2021/09/22 00:18:30;;;;;;;1.70;1.60;;;15.10;99.90;;;;;;6085376;23;20217;-77
2021/09/22 00:20:57;;;;;;;1.85;1.75;;;15.10;99.90;;;;;;6084776;23;20206;-77
2021/09/22 00:23:26;;;;;;;1.60;1.50;;;15.10;99.90;;;;;;6086185;23;20663;-78
2021/09/22 00:25:53;;;;;;;1.50;1.40;;;15.00;99.90;;;;;;6086406;23;20206;-77
2021/09/22 00:28:20;;;;;;;1.70;1.60;;;15.00;99.90;;;;;;6046329;23;20213;-77
2021/09/22 00:30:48;;;;;;;1.83;1.73;;;15.00;99.90;;;;;;6085282;23;20211;-77
2021/09/22 00:33:16;;;;;;;2.00;1.80;;;15.00;99.90;;;;;;6085350;23;20583;-77
2021/09/22 00:35:43;;;;;;;1.65;1.55;;;15.00;99.90;;;;;;6085538;23;20228;-77
2021/09/22 00:38:10;;;;;;;1.60;1.42;;;15.00;99.90;;;;;;6085389;23;20216;-77
2021/09/22 00:40:39;;;;;;;1.73;1.63;;;15.00;99.90;;;;;;6082873;23;20209;-77
2021/09/22 00:43:06;;;;;;;1.60;1.50;;;15.00;99.90;;;;;;6083747;23;20216;-77
2021/09/22 00:45:33;;;;;;;1.60;1.50;;;15.00;99.90;;;;;;6085374;23;20205;-77
2021/09/22 00:48:00;;;;;;;1.52;1.42;;;15.00;99.90;;;;;;6085041;23;20572;-77
2021/09/22 00:50:27;;;;;;;1.70;1.60;;;15.10;99.90;;;;;;6082928;23;20208;-77
2021/09/22 00:52:54;;;;;;;1.80;1.70;;;15.10;99.90;;;;;;6086481;23;20220;-77
2021/09/22 00:55:21;;;;;;;1.60;1.50;;;15.00;99.90;;;;;;6086452;23;20198;-77
2021/09/22 00:57:52;;;;;;;1.90;1.75;;;15.10;99.90;;;;;;6084268;23;20612;-77
2021/09/22 01:00:21;;;;;;;1.50;1.40;;;15.10;99.90;;;;;;6085369;23;20543;-77
2021/09/22 01:02:48;;;;;;;1.80;1.45;;;15.10;99.90;;;;;;6083250;23;20260;-77
2021/09/22 01:05:17;;;;;;;1.90;1.80;;;15.10;99.90;;;;;;6085530;23;20213;-77
2021/09/22 01:07:45;;;;;;;1.67;1.58;;;15.10;99.90;;;;;;6084361;23;20588;-77
2021/09/22 01:10:12;;;;;;;1.83;1.73;;;15.10;99.90;;;;;;6084717;23;20534;-77
2021/09/22 01:12:40;;;;;;;1.60;1.50;;;15.10;99.90;;;;;;6085585;23;20604;-77
2021/09/22 01:15:10;;;;;;;1.40;1.30;;;15.10;99.90;;;;;;6084689;23;20209;-78
2021/09/22 01:17:37;;;;;;;1.60;1.50;;;15.10;99.90;;;;;;6084770;23;20210;-77
2021/09/22 01:20:08;;;;;;;1.73;1.63;;;15.10;99.90;;;;;;6084900;23;20213;-77
2021/09/22 01:22:36;;;;;;;2.83;1.50;;;15.10;99.90;;;;;;6086087;23;20209;-77
2021/09/22 01:25:04;;;;;;;1.85;1.35;;;15.20;99.90;;;;;;6083952;23;20209;-77
2021/09/22 01:27:31;;;;;;;1.52;1.42;;;15.10;99.90;;;;;;6085094;23;20487;-77
2021/09/22 01:29:58;;;;;;;1.60;1.50;;;15.20;99.90;;;;;;6083561;23;20670;-77
2021/09/22 01:32:25;;;;;;;1.60;1.50;;;15.20;99.90;;;;;;6085172;23;20285;-77
2021/09/22 01:34:52;;;;;;;1.60;1.50;;;15.20;99.90;;;;;;6085509;23;20284;-77
2021/09/22 01:37:19;;;;;;;1.92;1.70;;;15.10;99.90;;;;;;6084223;23;20209;-77
2021/09/22 01:39:48;;;;;;;1.83;1.45;;;15.10;99.90;;;;;;6082695;23;20205;-77
2021/09/22 01:42:15;;;;;;;1.73;1.52;;;15.10;99.90;;;;;;6085407;23;20217;-77
2021/09/22 01:44:42;;;;;;;1.90;1.33;;;15.10;99.90;;;;;;6084648;23;20209;-77
2021/09/22 01:47:10;;;;;;;1.80;1.70;;;15.10;99.90;;;;;;6084149;23;20205;-77
2021/09/22 01:49:37;;;;;;;1.55;1.45;;;15.10;99.90;;;;;;6083795;23;20686;-77
2021/09/22 01:52:05;;;;;;;1.52;1.42;;;15.10;99.90;;;;;;6084076;23;20220;-77
2021/09/22 01:54:32;;;;;;;1.55;1.45;;;15.10;99.90;;;;;;6085020;23;20607;-77
2021/09/22 01:57:00;;;;;;;1.63;1.52;;;15.10;99.90;;;;;;6084158;23;20225;-77
2021/09/22 01:59:27;;;;;;;1.42;1.33;;;15.10;99.90;;;;;;6083779;23;20264;-77
2021/09/22 02:01:54;;;;;;;1.42;1.30;;;15.00;99.90;;;;;;6084460;23;20371;-77
2021/09/22 02:04:21;;;;;;;1.30;1.30;;;15.00;99.90;;;;;;6085769;23;20209;-77
2021/09/22 02:06:48;;;;;;;1.25;1.23;;;15.00;99.90;;;;;;6084054;23;20224;-77
2021/09/22 02:09:15;;;;;;;2.30;1.45;;;14.90;99.90;;;;;;6085181;23;20217;-77
2021/09/22 02:11:42;;;;;;;1.50;1.40;;;14.90;99.90;;;;;;6084484;23;20264;-77
2021/09/22 02:14:11;;;;;;;1.80;1.70;;;14.90;99.90;;;;;;6084826;23;20205;-77
2021/09/22 02:16:38;;;;;;;1.55;1.45;;;14.90;99.90;;;;;;6083688;23;20213;-77
2021/09/22 02:19:05;;;;;;;1.70;1.60;;;14.90;99.90;;;;;;6085144;23;20600;-77
2021/09/22 02:21:32;;;;;;;1.55;1.42;;;14.70;99.90;;;;;;6084451;23;20257;-78
2021/09/22 02:23:59;;;;;;;1.65;1.55;;;14.70;99.90;;;;;;6084693;23;20272;-77
2021/09/22 02:26:26;;;;;;;1.77;1.67;;;14.60;99.90;;;;;;6083832;23;20272;-77
2021/09/22 02:28:53;;;;;;;1.50;1.40;;;14.60;99.90;;;;;;6086198;23;20706;-77
2021/09/22 02:31:21;;;;;;;1.80;1.70;;;14.60;99.90;;;;;;6084956;23;20205;-77
2021/09/22 02:33:48;;;;;;;1.70;1.60;;;14.60;99.90;;;;;;6084995;23;20480;-77
2021/09/22 02:36:15;;;;;;;1.50;1.40;;;14.60;99.90;;;;;;6081401;23;20205;-77
2021/09/22 02:38:42;;;;;;;1.63;1.52;;;14.60;99.90;;;;;;6084570;23;20584;-77
2021/09/22 02:41:09;;;;;;;1.50;1.40;;;14.60;99.90;;;;;;6083398;23;20277;-77
2021/09/22 02:43:36;;;;;;;1.67;1.58;;;14.50;99.90;;;;;;6085556;23;20217;-77
2021/09/22 02:46:04;;;;;;;1.65;1.55;;;14.50;99.90;;;;;;6084498;23;20347;-77
2021/09/22 02:48:32;;;;;;;2.35;1.75;;;14.40;99.90;;;;;;6084354;23;20205;-77
2021/09/22 02:50:59;;;;;;;1.92;1.73;;;14.30;99.90;;;;;;6084461;23;20284;-77
2021/09/22 02:53:26;;;;;;;2.75;1.58;;;14.30;99.90;;;;;;6084711;23;20213;-77
2021/09/22 02:55:55;;;;;;;1.80;1.70;;;14.30;99.90;;;;;;6083796;23;20268;-77
2021/09/22 02:58:22;;;;;;;1.77;1.67;;;14.30;99.90;;;;;;6083250;23;20256;-77
2021/09/22 03:00:49;;;;;;;1.83;1.73;;;14.20;99.90;;;;;;6083452;23;20477;-77
2021/09/22 03:03:16;;;;;;;1.63;1.52;;;14.10;99.90;;;;;;6083851;23;20205;-77
2021/09/22 03:05:45;;;;;;;1.77;1.67;;;14.10;99.90;;;;;;6084610;23;20217;-77
2021/09/22 03:08:12;;;;;;;1.83;1.35;;;14.00;99.90;;;;;;6082969;23;20209;-77
2021/09/22 03:10:39;;;;;;;4.55;1.65;;;14.00;99.90;;;;;;6083319;23;20272;-77
2021/09/22 03:13:06;;;;;;;2.00;1.80;;;14.00;99.90;;;;;;6084718;23;20662;-77
2021/09/22 03:15:33;;;;;;;1.98;1.80;;;14.00;99.90;;;;;;6085540;23;20264;-77
2021/09/22 03:18:00;;;;;;;1.60;1.50;;;14.00;99.90;;;;;;6085686;23;20261;-77
2021/09/22 03:20:27;;;;;;;1.85;1.70;;;13.90;99.90;;;;;;6084699;23;20616;-77
2021/09/22 03:22:56;;;;;;;1.63;1.52;;;13.90;99.90;;;;;;6086432;23;20794;-77
2021/09/22 03:25:23;;;;;;;2.35;1.70;;;13.90;99.90;;;;;;6085567;23;20205;-77
2021/09/22 03:27:50;;;;;;;1.85;1.75;;;13.90;99.90;;;;;;6085060;23;20300;-77
2021/09/22 03:30:17;;;;;;;1.80;1.70;;;13.90;99.90;;;;;;6084888;23;20674;-77
2021/09/22 03:32:44;;;;;;;2.50;2.30;;;13.90;99.90;;;;;;6086389;23;20607;-77
2021/09/22 03:35:12;;;;;;;2.20;2.05;;;13.90;99.90;;;;;;6085423;23;20578;-77
2021/09/22 03:37:39;;;;;;;1.85;1.75;;;13.80;99.90;;;;;;6083686;23;20217;-77
2021/09/22 03:40:09;;;;;;;5.22;1.90;;;13.70;99.90;;;;;;6084064;23;20264;-77
2021/09/22 03:42:36;;;;;;;1.77;1.67;;;13.60;99.90;;;;;;6084398;23;20209;-77
2021/09/22 03:45:03;;;;;;;1.95;1.85;;;13.70;99.90;;;;;;6086347;23;20674;-77
2021/09/22 03:47:30;;;;;;;1.70;1.60;;;13.70;99.90;;;;;;6084709;23;20277;-77
2021/09/22 03:49:58;;;;;;;1.85;1.58;;;13.70;99.90;;;;;;6084169;23;20733;-77
2021/09/22 03:52:25;;;;;;;1.52;1.42;;;13.80;99.90;;;;;;6085872;23;20703;-77
2021/09/22 03:54:52;;;;;;;1.63;1.52;;;13.80;99.90;;;;;;6085986;23;20205;-77
2021/09/22 03:57:21;;;;;;;1.60;1.50;;;13.80;99.90;;;;;;6084435;23;20292;-77
2021/09/22 03:59:48;;;;;;;1.67;1.58;;;13.80;99.90;;;;;;6084025;23;20265;-77
2021/09/22 04:02:15;;;;;;;2.00;1.70;;;13.80;99.90;;;;;;6084203;23;20274;-76
2021/09/22 04:04:43;;;;;;;1.85;1.70;;;13.80;99.90;;;;;;6083421;23;20233;-77
2021/09/22 04:07:10;;;;;;;1.90;1.80;;;13.70;99.90;;;;;;6085072;23;20201;-77
2021/09/22 04:09:37;;;;;;;1.70;1.60;;;13.70;99.90;;;;;;6083815;23;20205;-77
2021/09/22 04:12:04;;;;;;;1.75;1.48;;;13.70;99.90;;;;;;6085448;23;20209;-77
2021/09/22 04:14:33;;;;;;;1.73;1.63;;;13.70;99.90;;;;;;6083927;23;20276;-77
2021/09/22 04:17:00;;;;;;;1.73;1.63;;;13.70;99.90;;;;;;6083741;23;20816;-77
2021/09/22 04:19:27;;;;;;;1.77;1.67;;;13.70;99.90;;;;;;6085721;23;20280;-77
2021/09/22 04:21:54;;;;;;;1.45;1.35;;;13.70;99.90;;;;;;6085624;23;20209;-77
2021/09/22 04:24:21;;;;;;;2.10;1.92;;;13.70;99.90;;;;;;6086808;23;20201;-77
2021/09/22 04:26:48;;;;;;;1.55;1.45;;;13.70;99.90;;;;;;6084105;23;20209;-77
2021/09/22 04:29:15;;;;;;;1.58;1.48;;;13.70;99.90;;;;;;6086128;23;20209;-77
2021/09/22 04:31:44;;;;;;;2.30;1.83;;;13.70;99.90;;;;;;6083669;23;20209;-77
2021/09/22 04:34:11;;;;;;;1.30;1.30;;;13.60;99.90;;;;;;6086164;23;20209;-77
2021/09/22 04:36:40;;;;;;;1.58;1.48;;;13.60;99.90;;;;;;6084192;23;20217;-77
2021/09/22 04:39:08;;;;;;;1.40;1.30;;;13.60;99.90;;;;;;6084790;23;20539;-77
2021/09/22 04:41:36;;;;;;;1.73;1.63;;;13.50;99.90;;;;;;6084104;23;20289;-77
2021/09/22 04:44:03;;;;;;;1.55;1.45;;;13.50;99.90;;;;;;6084564;23;20201;-77
2021/09/22 04:46:31;;;;;;;4.20;1.63;;;13.50;99.90;;;;;;6085053;23;20213;-77
2021/09/22 04:48:59;;;;;;;2.30;1.60;;;13.50;99.90;;;;;;6084799;23;20201;-77
2021/09/22 04:51:26;;;;;;;1.60;1.50;;;13.50;99.90;;;;;;6084682;23;20216;-77
2021/09/22 04:53:53;;;;;;;1.73;1.63;;;13.50;99.90;;;;;;6086177;23;20213;-77
2021/09/22 04:56:20;;;;;;;1.60;1.50;;;13.50;99.90;;;;;;6047754;23;20257;-77
2021/09/22 04:58:47;;;;;;;1.67;1.58;;;13.60;99.90;;;;;;6085610;23;20261;-77
2021/09/22 05:01:14;;;;;;;1.75;1.65;;;13.60;99.90;;;;;;6081321;23;20594;-77
2021/09/22 05:03:41;;;;;;;1.65;1.55;;;13.60;99.90;;;;;;6086149;23;20265;-78
2021/09/22 05:06:10;;;;;;;1.80;1.70;;;13.60;99.90;;;;;;6084852;23;20206;-78
2021/09/22 05:08:37;;;;;;;1.40;1.30;;;13.60;99.90;;;;;;6085744;23;20209;-77
2021/09/22 05:11:04;;;;;;;1.50;1.40;;;13.60;99.90;;;;;;6084577;23;20261;-77
2021/09/22 05:13:31;;;;;;;1.75;1.65;;;13.70;99.90;;;;;;6084950;23;20256;-77
2021/09/22 05:15:58;;;;;;;1.80;1.70;;;13.70;99.90;;;;;;6085448;23;20205;-77
2021/09/22 05:18:25;;;;;;;1.70;1.60;;;13.70;99.90;;;;;;6085200;23;20213;-77
2021/09/22 05:20:52;;;;;;;1.90;1.80;;;13.70;99.90;;;;;;6084901;23;20587;-77
2021/09/22 05:23:21;;;;;;;2.47;1.70;;;13.60;99.90;;;;;;6085565;23;20260;-77
2021/09/22 05:25:48;;;;;;;1.60;1.50;;;13.60;99.90;;;;;;6084430;23;20202;-77
2021/09/22 05:28:15;;;;;;;1.58;1.48;;;13.60;99.90;;;;;;6084273;23;20272;-77
2021/09/22 05:30:43;;;;;;;1.80;1.70;;;13.50;99.90;;;;;;6084779;23;20209;-77
2021/09/22 05:33:11;;;;;;;1.98;1.88;;;13.50;99.90;;;;;;6084959;23;20613;-77
2021/09/22 05:35:38;;;;;;;2.38;1.60;;;13.50;99.90;;;;;;6084781;23;20233;-75
2021/09/22 05:38:05;;;;;;;1.75;1.65;;;13.50;99.90;;;;;;6084094;23;20210;-75
2021/09/22 05:40:33;;;;;;;1.95;1.85;;;13.50;99.90;;;;;;6084335;23;20217;-75
2021/09/22 05:43:01;;;;;;;1.67;1.58;;;13.50;99.90;;;;;;6084973;23;20205;-75
2021/09/22 05:45:28;;;;;;;1.75;1.65;;;13.50;99.90;;;;;;6084372;23;20218;-75
2021/09/22 05:47:55;;;;;;;1.77;1.67;;;13.50;99.90;;;;;;6083235;23;20318;-75
2021/09/22 05:50:22;;;;;;;1.63;1.52;;;13.60;99.90;;;;;;6085627;23;20608;-75
2021/09/22 05:52:49;;;;;;;1.70;1.60;;;13.60;99.90;;;;;;6084608;23;20599;-75
2021/09/22 05:55:16;;;;;;;2.25;1.50;;;13.70;99.90;;;;;;6084010;23;20277;-75
2021/09/22 05:57:45;;;;;;;1.80;1.70;;;13.60;99.90;;;;;;6084811;23;20533;-75
2021/09/22 06:00:13;;;;;;;1.60;1.50;;;13.60;99.90;;;;;;6080506;23;20283;-75
2021/09/22 06:02:40;;;;;;;1.65;1.55;;;13.60;99.90;;;;;;6085775;23;20209;-75
2021/09/22 06:05:08;;;;;;;2.55;1.92;;;13.70;99.90;;;;;;6083476;23;20212;-75
2021/09/22 06:07:35;;;;;;;1.85;1.75;;;13.70;99.90;;;;;;6082875;23;20268;-75
2021/09/22 06:10:02;;;;;;;1.83;1.73;;;13.80;99.90;;;;;;6084550;23;20741;-75
2021/09/22 06:12:29;;;;;;;1.55;1.45;;;13.90;99.90;;;;;;6083347;23;20260;-75
2021/09/22 06:14:58;;;;;;;1.60;1.50;;;14.00;99.90;;;;;;6083623;23;20256;-75
2021/09/22 06:17:25;;;;;;;1.77;1.67;;;14.00;99.90;;;;;;6085396;23;20253;-75
2021/09/22 06:19:52;;;;;;;1.58;1.48;;;14.10;99.90;;;;;;6085998;23;20585;-75
2021/09/22 06:22:24;;;;;;;2.20;1.83;;;14.10;99.90;;;;;;6084342;23;20213;-75
2021/09/22 06:24:51;;;;;;;1.33;1.23;;;14.00;99.90;;;;;;6084966;23;20628;-75
2021/09/22 06:27:19;;;;;;;1.90;1.80;;;14.00;99.90;;;;;;6084678;23;20588;-75
2021/09/22 06:29:46;;;;;;;1.88;1.77;;;14.10;99.90;;;;;;6085069;23;20272;-75
2021/09/22 06:32:14;;;;;;;1.58;1.48;;;14.10;99.90;;;;;;6085514;23;20213;-75
2021/09/22 06:34:42;;;;;;;1.80;1.70;;;14.10;99.90;;;;;;6084834;23;20256;-75
2021/09/22 06:37:09;;;;;;;2.35;1.90;;;14.10;99.90;;;;;;6083519;23;20201;-75
2021/09/22 06:39:38;;;;;;;1.75;1.65;;;14.10;99.90;;;;;;6084377;23;20214;-75
2021/09/22 06:42:05;;;;;;;2.15;1.90;;;14.20;99.90;;;;;;6084321;23;20654;-75
2021/09/22 06:44:32;;;;;;;2.25;2.05;;;14.20;99.90;;;;;;6083141;23;20212;-75
2021/09/22 06:46:59;;;;;;;3.13;1.85;;;14.30;99.90;;;;;;6083589;23;21010;-75
2021/09/22 06:49:27;;;;;;;1.80;1.70;;;14.40;99.90;;;;;;6086654;23;20579;-75
2021/09/22 06:51:55;;;;;;;2.00;1.90;;;14.40;99.90;;;;;;6086845;23;20201;-75
2021/09/22 06:54:22;;;;;;;1.77;1.67;;;14.50;99.90;;;;;;6088141;23;20264;-75
2021/09/22 06:56:49;;;;;;;1.85;1.75;;;14.50;99.90;;;;;;6085966;23;20209;-75
2021/09/22 06:59:17;;;;;;;1.70;1.60;;;14.50;99.90;;;;;;6087182;23;20279;-75
2021/09/22 07:01:45;;;;;;;1.60;1.50;;;14.50;99.90;;;;;;6087020;23;20550;-75
2021/09/22 07:04:12;;;;;;;2.00;1.90;;;14.50;99.90;;;;;;6087683;23;20236;-75
2021/09/22 07:06:41;;;;;;;1.98;1.75;;;14.60;99.90;;;;;;6085179;23;20209;-75
2021/09/22 07:09:08;;;;;;;1.80;1.70;;;14.60;99.90;;;;;;6087000;23;20209;-75
2021/09/22 07:11:35;;;;;;;2.13;1.90;;;14.80;99.90;;;;;;6086369;23;20210;-75
2021/09/22 07:14:02;;;;;;;3.05;1.88;;;15.20;99.90;;;;;;6086800;23;20206;-75
2021/09/22 07:16:30;;;;;;;1.95;1.85;;;15.50;99.90;;;;;;6086361;23;20586;-75
2021/09/22 07:18:58;;;;;;;3.22;2.35;;;15.60;99.90;;;;;;6086666;23;20209;-75
2021/09/22 07:21:25;;;;;;;2.42;2.28;;;15.60;99.90;;;;;;6086384;23;20213;-75
2021/09/22 07:23:54;;;;;;;2.17;2.00;;;15.80;99.90;;;;;;6086852;23;20205;-75
2021/09/22 07:26:21;;;;;;;3.40;1.83;;;16.20;99.90;;;;;;6048204;23;20201;-75
2021/09/22 07:28:48;;;;;;;3.17;2.53;;;16.40;99.90;;;;;;6087026;23;20662;-75
2021/09/22 07:31:15;;;;;;;2.30;2.10;;;16.20;99.90;;;;;;6085825;23;20273;-75
2021/09/22 07:33:42;;;;;;;4.05;1.85;;;16.00;99.90;;;;;;6086002;23;20598;-75
2021/09/22 07:36:10;;;;;;;2.22;2.13;;;16.10;99.90;;;;;;6086619;23;20293;-75
2021/09/22 07:38:37;;;;;;;2.08;1.88;;;16.50;99.90;;;;;;6086766;23;20229;-75
2021/09/22 07:41:05;;;;;;;2.03;1.73;;;17.10;99.90;;;;;;6086217;23;20209;-75
2021/09/22 07:43:32;;;;;;;2.25;2.10;;;17.60;99.90;;;;;;6087200;23;20205;-75
2021/09/22 07:46:00;;;;;;;2.25;2.05;;;18.00;99.90;;;;;;6084680;23;20201;-75
2021/09/22 07:48:27;;;;;;;2.50;2.30;;;18.30;99.90;;;;;;6085200;23;20264;-75
2021/09/22 07:50:54;;;;;;;2.60;2.40;;;18.40;99.90;;;;;;6085142;23;20281;-75
2021/09/22 07:53:22;;;;;;;3.88;2.13;;;18.40;99.90;;;;;;6085824;23;20205;-75
2021/09/22 07:55:49;;;;;;;2.05;1.83;;;18.50;99.90;;;;;;6085937;23;20209;-75
2021/09/22 07:58:18;;;;;;;2.05;1.85;;;18.60;99.90;;;;;;6085814;23;20209;-75
2021/09/22 08:00:45;;;;;;;3.05;1.50;;;18.80;99.90;;;;;;6084153;23;20724;-75
2021/09/22 08:03:12;;;;;;;1.58;1.48;;;19.00;99.90;;;;;;6086974;23;20765;-75
2021/09/22 08:05:39;;;;;;;2.13;1.90;;;19.30;99.90;;;;;;6086716;23;20647;-75
2021/09/22 08:08:07;;;;;;;1.70;1.60;;;19.50;99.90;;;;;;6085338;23;20655;-75
2021/09/22 08:10:35;;;;;;;2.40;1.90;;;19.40;99.90;;;;;;6085905;23;20205;-75
2021/09/22 08:13:02;;;;;;;1.75;1.65;;;19.50;99.90;;;;;;6086523;23;20327;-76
2021/09/22 08:15:30;;;;;;;1.77;1.67;;;19.50;99.90;;;;;;6086006;23;20245;-75
2021/09/22 08:17:58;;;;;;;1.70;1.60;;;19.60;99.90;;;;;;6086062;23;20213;-75
2021/09/22 08:20:25;;;;;;;2.42;1.80;;;19.60;99.90;;;;;;6084998;23;20209;-75
2021/09/22 08:22:52;;;;;;;1.95;1.75;;;19.60;99.90;;;;;;6086423;23;20662;-75
2021/09/22 08:25:19;;;;;;;2.28;1.70;;;19.70;99.90;;;;;;6086447;23;20209;-75
2021/09/22 08:27:46;;;;;;;1.73;1.63;;;19.80;99.90;;;;;;6085955;23;20213;-75
2021/09/22 08:30:14;;;;;;;2.30;1.85;;;19.90;99.90;;;;;;6086115;23;20285;-75
2021/09/22 08:32:43;;;;;;;1.90;1.80;;;19.90;99.90;;;;;;6085321;23;20197;-75
2021/09/22 08:35:11;;;;;;;2.38;2.17;;;20.00;99.90;;;;;;6086661;23;20267;-75
2021/09/22 08:37:39;;;;;;;2.08;1.80;;;20.10;99.90;;;;;;6083015;23;20206;-75
2021/09/22 08:40:08;;;;;;;2.00;1.80;;;20.10;99.90;;;;;;6086221;23;20205;-75
2021/09/22 08:42:36;;;;;;;1.98;1.88;;;20.10;99.90;;;;;;6084582;23;20213;-75
2021/09/22 08:45:03;;;;;;;2.97;1.88;;;20.20;99.90;;;;;;6084857;23;20217;-76
2021/09/22 08:47:30;;;;;;;2.08;1.70;;;20.30;99.90;;;;;;6084309;23;20217;-75
2021/09/22 08:49:59;;;;;;;2.85;1.80;;;20.20;99.90;;;;;;6087528;23;20197;-75
2021/09/22 08:52:26;;;;;;;1.73;1.60;;;20.10;99.90;;;;;;6086398;23;20343;-75
2021/09/22 08:54:53;;;;;;;2.45;1.88;;;20.10;99.90;;;;;;6086748;23;20496;-75
2021/09/22 08:57:20;;;;;;;2.13;1.85;;;20.40;99.90;;;;;;6083810;23;20209;-75
2021/09/22 08:59:47;;;;;;;2.00;1.80;;;20.50;99.90;;;;;;6086615;23;20261;-75
2021/09/22 09:02:16;;;;;;;1.80;1.70;;;20.70;99.90;;;;;;6083940;23;20725;-75
2021/09/22 09:04:46;;;;;;;1.90;1.80;;;21.20;99.90;;;;;;6085854;23;20213;-75
2021/09/22 09:07:14;;;;;;;2.03;1.92;;;21.60;99.90;;;;;;6085224;23;20276;-75
2021/09/22 09:09:43;;;;;;;3.08;1.80;;;21.80;99.90;;;;;;6084923;23;20268;-76
2021/09/22 09:12:18;;;;;;;3.83;1.95;;;21.70;99.90;;;;;;6085472;23;20269;-75
2021/09/22 09:14:52;;;;;;;2.95;1.63;;;21.60;99.90;;;;;;6083998;23;20232;-76
2021/09/22 09:17:36;;;;;;;2.15;2.05;;;21.70;99.90;;;;;;6084642;23;20201;-75
2021/09/22 09:20:12;;;;;;;3.47;1.85;;;21.60;99.90;;;;;;6085046;23;20201;-75
2021/09/22 09:22:40;;;;;;;3.63;1.95;;;20.90;99.90;;;;;;6086265;23;20220;-75
2021/09/22 09:25:08;;;;;;;2.10;1.90;;;20.50;99.90;;;;;;6086192;23;20268;-76
2021/09/22 09:27:37;;;;;;;1.88;1.63;;;20.50;99.90;;;;;;6084721;23;20280;-75
2021/09/22 09:30:18;;;;;;;2.00;1.55;;;20.60;99.90;;;;;;6085861;23;20206;-75
2021/09/22 09:32:45;;;;;;;3.65;1.77;;;20.60;99.90;;;;;;6085325;23;20216;-76
2021/09/22 09:35:15;;;;;;;1.90;1.42;;;20.50;99.90;;;;;;6086493;23;20209;-75
2021/09/22 09:37:45;;;;;;;2.05;1.85;;;20.40;99.90;;;;;;6084728;23;20210;-75
2021/09/22 09:40:21;;;;;;;1.70;1.60;;;20.50;99.90;;;;;;6086222;23;20210;-75
2021/09/22 09:42:50;;;;;;;2.25;1.73;;;20.70;99.90;;;;;;6083839;23;20216;-75
2021/09/22 09:45:19;;;;;;;1.55;1.45;;;21.00;99.90;;;;;;6086478;23;20209;-75
2021/09/22 09:48:03;;;;;;;1.65;1.55;;;21.10;99.90;;;;;;6083585;23;20280;-75
2021/09/22 09:50:31;;;;;;;1.92;1.80;;;21.60;99.90;;;;;;6084692;23;20714;-76
2021/09/22 09:53:01;;;;;;;1.75;1.65;;;22.00;99.90;;;;;;6085093;23;20213;-76
2021/09/22 09:55:29;;;;;;;1.80;1.70;;;22.10;99.90;;;;;;6085687;23;20280;-76
2021/09/22 09:57:57;;;;;;;1.83;1.73;;;22.10;99.90;;;;;;6084245;23;20205;-75
2021/09/22 10:00:43;;;;;;;1.75;1.65;;;22.20;99.90;;;;;;6085492;23;20213;-76
2021/09/22 10:03:11;;;;;;;1.92;1.73;;;22.50;99.90;;;;;;6084299;23;20213;-76
2021/09/22 10:05:38;;;;;;;1.85;1.75;;;22.70;99.90;;;;;;6084588;23;20273;-76
2021/09/22 10:08:07;;;;;;;1.95;1.73;;;22.70;99.90;;;;;;6085204;23;20209;-76
2021/09/22 10:10:34;;;;;;;1.67;1.58;;;22.40;99.90;;;;;;6085062;23;20699;-76
2021/09/22 10:13:02;;;;;;;1.80;1.70;;;22.50;99.90;;;;;;6085272;23;20206;-76
2021/09/22 10:15:33;;;;;;;1.60;1.50;;;22.70;99.90;;;;;;6085040;23;21008;-76
2021/09/22 10:18:01;;;;;;;1.65;1.55;;;22.80;99.90;;;;;;6084272;23;20201;-76
2021/09/22 10:20:28;;;;;;;2.22;1.73;;;22.80;99.90;;;;;;6085177;23;20265;-76
2021/09/22 10:22:55;;;;;;;1.80;1.70;;;22.80;99.90;;;;;;6086225;23;20519;-76
2021/09/22 10:25:25;;;;;;;1.70;1.60;;;22.90;99.90;;;;;;6088923;23;20213;-76
2021/09/22 10:27:52;;;;;;;1.35;1.30;;;22.90;99.90;;;;;;6086210;23;20599;-75
2021/09/22 10:30:33;;;;;;;2.00;1.90;;;23.00;99.90;;;;;;6087592;23;20205;-76
2021/09/22 10:33:00;;;;;;;2.40;1.42;;;22.70;99.90;;;;;;6086610;23;20268;-76
2021/09/22 10:35:40;;;;;;;1.95;1.50;;;22.50;99.90;;;;;;6089053;23;20217;-76
2021/09/22 10:38:38;;;;;;;1.80;1.65;;;22.50;99.90;;;;;;6088204;23;20235;-76
2021/09/22 10:41:07;;;;;;;1.75;1.65;;;22.50;99.90;;;;;;6085979;23;20201;-76
2021/09/22 10:43:39;;;;;;;1.70;1.60;;;22.50;99.90;;;;;;6086804;23;20619;-76
2021/09/22 10:46:13;;;;;;;1.65;1.55;;;22.50;99.90;;;;;;6087858;23;20256;-76
2021/09/22 10:48:41;;;;;;;1.90;1.80;;;22.40;99.90;;;;;;6086674;23;20213;-76
2021/09/22 10:51:10;;;;;;;3.17;1.40;;;22.20;99.90;;;;;;6086800;23;20257;-76
2021/09/22 10:53:39;;;;;;;1.67;1.58;;;22.20;99.90;;;;;;6087603;23;20217;-76
2021/09/22 10:56:10;;;;;;;1.88;1.77;;;22.20;99.90;;;;;;6087238;23;20526;-76
2021/09/22 10:58:48;;;;;;;1.55;1.45;;;22.40;99.90;;;;;;6086104;23;20210;-76
2021/09/22 11:01:49;;;;;;;1.70;1.60;;;22.60;99.90;;;;;;6085214;23;20208;-76
2021/09/22 11:04:17;;;;;;;1.20;1.20;;;22.60;99.90;;;;;;6085118;23;20272;-76
2021/09/22 11:07:08;;;;;;;1.60;1.40;;;22.40;99.90;;;;;;6086209;23;20237;-77
2021/09/22 11:09:36;;;;;;;1.38;1.27;;;22.40;99.90;;;;;;6087323;23;20221;-76
2021/09/22 11:12:20;;;;;;;1.50;1.40;;;22.50;99.90;;;;;;6086311;23;20212;-76
2021/09/22 11:14:49;;;;;;;1.50;1.40;;;22.80;99.90;;;;;;6086099;23;20609;-76
2021/09/22 11:17:19;;;;;;;1.50;1.38;;;22.80;99.90;;;;;;6086473;23;20228;-76
2021/09/22 11:19:48;;;;;;;1.20;1.20;;;22.50;99.90;;;;;;6087041;23;20485;-76
2021/09/22 11:22:17;;;;;;;1.90;1.58;;;22.20;99.90;;;;;;6084576;23;21219;-76
2021/09/22 11:24:45;;;;;;;1.50;1.40;;;22.00;99.90;;;;;;6087333;23;20264;-76
2021/09/22 11:27:16;;;;;;;1.45;1.35;;;21.70;99.90;;;;;;6085700;23;20264;-76
2021/09/22 11:29:46;;;;;;;1.40;1.30;;;21.60;99.90;;;;;;6087181;23;20268;-76
2021/09/22 11:32:29;;;;;;;1.60;1.40;;;21.60;99.90;;;;;;6086827;23;20221;-76
2021/09/22 11:34:58;;;;;;;1.70;1.60;;;21.50;99.90;;;;;;6086278;23;20201;-76
2021/09/22 11:37:31;;;;;;;1.50;1.40;;;21.30;99.90;;;;;;6085685;23;20205;-76
2021/09/22 11:40:10;;;;;;;1.40;1.30;;;21.10;99.90;;;;;;6085835;23;20757;-76
2021/09/22 11:42:40;;;;;;;1.45;1.35;;;21.10;99.90;;;;;;6086912;23;20292;-76
2021/09/22 11:45:08;;;;;;;3.28;1.52;;;21.20;99.90;;;;;;6086559;23;20280;-76
2021/09/22 11:47:35;;;;;;;1.77;1.63;;;21.30;99.90;;;;;;6085249;23;20274;-75
2021/09/22 11:50:02;;;;;;;1.70;1.60;;;21.40;99.90;;;;;;6086223;23;20209;-76
2021/09/22 11:52:29;;;;;;;1.73;1.63;;;21.50;99.90;;;;;;6086106;23;20214;-76
2021/09/22 11:54:57;;;;;;;1.42;1.33;;;21.70;99.90;;;;;;6086046;23;20210;-76
2021/09/22 11:57:28;;;;;;;1.60;1.50;;;22.00;99.90;;;;;;6086635;23;20284;-76
2021/09/22 11:59:57;;;;;;;2.17;1.67;;;22.20;99.90;;;;;;6085841;23;20201;-76
2021/09/22 12:02:29;;;;;;;1.50;1.40;;;22.20;99.90;;;;;;6085636;23;20209;-75
2021/09/22 12:04:59;;;;;;;1.60;1.50;;;22.30;99.90;;;;;;6085677;23;20262;-76
2021/09/22 12:07:30;;;;;;;1.50;1.40;;;22.20;99.90;;;;;;6085702;23;20580;-76
2021/09/22 12:10:01;;;;;;;2.05;1.40;;;21.80;99.90;;;;;;6086991;23;20273;-76
2021/09/22 12:12:31;;;;;;;1.88;1.25;;;21.70;99.90;;;;;;6085866;23;20667;-76
2021/09/22 12:15:01;;;;;;;2.03;1.45;;;21.60;99.90;;;;;;6085599;23;20256;-76
2021/09/22 12:17:31;;;;;;;1.92;1.60;;;21.60;99.90;;;;;;6085438;23;20245;-76
2021/09/22 12:20:00;;;;;;;1.60;1.50;;;21.50;99.90;;;;;;6087787;23;20213;-76
2021/09/22 12:22:31;;;;;;;1.30;1.20;;;21.50;99.90;;;;;;6087859;23;20217;-76
2021/09/22 12:24:59;;;;;;;1.33;1.23;;;21.50;99.90;;;;;;6085788;23;20205;-76
2021/09/22 12:27:28;;;;;;;1.45;1.35;;;21.40;99.90;;;;;;6084922;23;20574;-76
2021/09/22 12:30:03;;;;;;;1.40;1.30;;;21.40;99.90;;;;;;6087693;23;20217;-76
2021/09/22 12:32:30;;;;;;;1.48;1.38;;;21.30;99.90;;;;;;6085309;23;20216;-76
2021/09/22 12:34:59;;;;;;;1.60;1.50;;;21.30;99.90;;;;;;6086724;23;20553;-76
2021/09/22 12:37:30;;;;;;;1.27;1.20;;;21.30;99.90;;;;;;6084705;23;20249;-76
2021/09/22 12:40:00;;;;;;;1.42;1.10;;;21.30;99.90;;;;;;6085453;23;20730;-76
2021/09/22 12:42:40;;;;;;;1.80;1.23;;;21.30;99.90;;;;;;6084737;23;20214;-76
2021/09/22 12:45:11;;;;;;;1.70;1.50;;;21.30;99.90;;;;;;6083881;23;20201;-76
2021/09/22 12:47:49;;;;;;;1.92;1.23;;;21.20;99.90;;;;;;6083993;23;20675;-77
2021/09/22 12:50:18;;;;;;;1.70;1.60;;;21.20;99.90;;;;;;6084336;23;20268;-76
2021/09/22 12:52:48;;;;;;;1.60;1.27;;;21.20;99.90;;;;;;6086229;23;20746;-76
2021/09/22 12:55:27;;;;;;;1.67;1.58;;;21.10;99.90;;;;;;6085638;23;20205;-76